Time;durP1;ratioP1;P1;durP2;ratioP2;P2;SDS_P1;SDS_P2;PMS_P1;PMS_P2;Temp;Humidity;BMP_temperature;BMP_pressure;BME280_temperature;BME280_humidity;BME280_pressure;Samples;Min_cycle;Max_cycle;Signal;HPM_P1;HPM_P2
2022/10/20 00:01:37;;;;;;;2.00;0.50;;;;;;;21.57;37.37;101191.53;4196886;28;20044;-63
2022/10/20 00:06:24;;;;;;;1.88;0.60;;;;;;;21.55;37.82;101191.00;4194904;28;20036;-62
2022/10/20 00:08:25;;;;;;;16.02;0.88;;;;;;;21.57;37.41;101191.53;4181013;28;20110;-62
2022/10/20 00:10:27;;;;;;;17.20;1.77;;;;;;;21.57;37.85;101199.91;4191785;28;20094;-63
2022/10/20 00:12:28;;;;;;;5.20;0.98;;;;;;;21.56;37.63;101192.66;4197578;28;20364;-62
2022/10/20 00:14:29;;;;;;;4.97;1.08;;;;;;;21.52;37.80;101185.97;4197182;28;20105;-61
2022/10/20 00:16:34;;;;;;;3.17;0.93;;;;;;;21.52;37.91;101195.16;4195942;28;20078;-62
2022/10/20 00:18:35;;;;;;;4.93;0.80;;;;;;;21.52;37.72;101199.91;4197565;28;20106;-61
2022/10/20 00:20:39;;;;;;;0.95;0.50;;;;;;;21.50;37.98;101199.34;4196685;28;20044;-62
2022/10/20 00:22:40;;;;;;;8.10;0.80;;;;;;;21.49;37.91;101200.47;4196958;28;20426;-62
2022/10/20 00:24:42;;;;;;;5.47;0.50;;;;;;;21.27;38.12;101176.50;4196654;28;20036;-63
2022/10/20 00:26:43;;;;;;;6.68;0.50;;;;;;;21.49;38.23;101212.44;4187787;28;20049;-61
2022/10/20 00:28:44;;;;;;;7.05;1.10;;;;;;;21.51;37.96;101217.72;4192394;28;20098;-62
2022/10/20 00:30:46;;;;;;;15.15;1.25;;;;;;;21.50;38.09;101213.28;4197842;28;20040;-62
2022/10/20 00:32:47;;;;;;;8.23;1.05;;;;;;;21.55;38.13;101213.28;4196587;28;20122;-61
2022/10/20 00:34:48;;;;;;;5.18;0.95;;;;;;;21.54;38.24;101218.00;4197197;28;20418;-61
2022/10/20 00:36:50;;;;;;;2.60;0.73;;;;;;;21.56;37.61;101220.50;4196457;28;20314;-61
2022/10/20 00:38:57;;;;;;;6.82;0.60;;;;;;;21.56;38.08;101226.06;4196945;28;20033;-61
2022/10/20 00:41:02;;;;;;;12.07;0.70;;;;;;;21.60;38.05;101238.34;4198040;28;20045;-62
2022/10/20 00:43:03;;;;;;;7.38;0.60;;;;;;;21.61;37.73;101231.63;4199473;28;20037;-62
2022/10/20 00:45:12;;;;;;;3.88;0.73;;;;;;;21.58;37.75;101235.00;4199403;28;20081;-62
2022/10/20 00:47:36;;;;;;;5.28;0.80;;;;;;;21.56;38.02;101232.47;4193701;28;20090;-62
2022/10/20 00:49:43;;;;;;;6.32;0.50;;;;;;;21.61;37.69;101234.44;4199724;28;20106;-62
2022/10/20 00:51:45;;;;;;;1.05;0.50;;;;;;;21.62;38.03;101240.81;4200127;28;20086;-62
2022/10/20 00:53:50;;;;;;;4.18;0.63;;;;;;;21.52;38.09;101222.16;4198230;28;20082;-62
2022/10/20 00:55:54;;;;;;;2.80;0.60;;;;;;;21.56;37.72;101235.25;4199467;28;20044;-62
2022/10/20 00:57:57;;;;;;;3.45;0.57;;;;;;;21.62;38.12;101243.59;4199156;28;20045;-62
2022/10/20 00:59:58;;;;;;;2.88;0.77;;;;;;;21.40;37.77;101210.50;4199960;28;20040;-62
2022/10/20 01:02:01;;;;;;;5.00;0.60;;;;;;;21.60;37.98;101240.28;4198596;28;20070;-62
2022/10/20 01:04:05;;;;;;;2.70;0.75;;;;;;;21.61;37.70;101240.00;4199882;28;20086;-62
2022/10/20 01:06:07;;;;;;;3.22;0.60;;;;;;;21.63;37.97;101248.09;4199994;28;20045;-62
2022/10/20 01:08:11;;;;;;;2.75;0.73;;;;;;;21.61;37.94;101256.69;4199916;28;20045;-62
2022/10/20 01:10:13;;;;;;;3.67;0.65;;;;;;;21.34;37.83;101211.59;4200130;28;20036;-62
2022/10/20 01:12:26;;;;;;;4.75;0.50;;;;;;;21.58;38.12;101248.94;4199562;28;20033;-62
2022/10/20 01:14:42;;;;;;;3.80;0.60;;;;;;;21.60;38.01;101251.41;4200189;28;20118;-62
2022/10/20 01:17:05;;;;;;;3.58;0.60;;;;;;;21.62;37.82;101263.09;4199216;28;20040;-62
2022/10/20 01:19:18;;;;;;;2.08;0.63;;;;;;;21.62;37.95;101252.78;4198494;28;20040;-62
2022/10/20 01:21:25;;;;;;;2.25;0.90;;;;;;;21.62;37.88;101258.38;4200031;28;20040;-62
2022/10/20 01:23:29;;;;;;;4.15;0.45;;;;;;;21.63;37.67;101267.59;4197407;28;20113;-62
2022/10/20 01:25:51;;;;;;;5.47;0.60;;;;;;;21.60;37.39;101257.81;4198402;28;20032;-62
2022/10/20 01:27:57;;;;;;;2.97;0.68;;;;;;;21.60;37.62;101263.41;4199546;28;20126;-61
2022/10/20 01:30:06;;;;;;;2.35;0.43;;;;;;;21.59;37.58;101270.09;4199009;28;20044;-61
2022/10/20 01:32:23;;;;;;;2.10;0.50;;;;;;;21.58;38.05;101276.78;4188420;28;20053;-62
2022/10/20 01:34:50;;;;;;;3.35;0.60;;;;;;;21.43;37.80;101246.13;4183342;28;20038;-62
2022/10/20 01:37:26;;;;;;;3.05;0.40;;;;;;;21.56;38.06;101271.47;4188676;28;20086;-62
2022/10/20 01:39:39;;;;;;;1.35;0.47;;;;;;;21.59;37.60;101272.03;4192600;28;20037;-64
2022/10/20 01:41:52;;;;;;;1.65;0.65;;;;;;;21.58;37.76;101274.00;4199495;28;20078;-62
2022/10/20 01:43:54;;;;;;;0.90;0.38;;;;;;;21.61;37.93;101278.16;4196134;28;20094;-62
2022/10/20 01:45:57;;;;;;;1.67;0.60;;;;;;;21.55;37.69;101269.78;4199242;28;20053;-62
2022/10/20 01:48:04;;;;;;;1.65;0.50;;;;;;;21.57;37.55;101275.06;4194999;28;20118;-62
2022/10/20 01:50:07;;;;;;;2.35;0.70;;;;;;;21.47;37.88;101259.19;4195065;28;20029;-62
2022/10/20 01:52:10;;;;;;;2.28;0.57;;;;;;;21.56;37.95;101271.47;4187295;28;20056;-62
2022/10/20 01:54:28;;;;;;;2.17;0.52;;;;;;;21.54;37.89;101273.69;4194590;28;20445;-63
2022/10/20 01:57:11;;;;;;;1.33;0.47;;;;;;;21.54;37.75;101284.00;4190350;28;20488;-63
2022/10/20 01:59:18;;;;;;;1.73;0.55;;;;;;;21.57;37.82;101278.69;4177118;28;20036;-62
2022/10/20 02:01:50;;;;;;;2.50;0.60;;;;;;;21.55;37.67;101285.66;4196978;28;20044;-62
2022/10/20 02:03:55;;;;;;;2.20;0.75;;;;;;;21.58;38.02;101293.47;4197955;28;20040;-63
2022/10/20 02:06:14;;;;;;;3.00;1.83;;;;;;;21.56;37.61;101299.31;4195785;28;20045;-63
2022/10/20 02:08:27;;;;;;;3.63;0.65;;;;;;;21.56;37.75;101304.03;4193922;28;20036;-62
2022/10/20 02:10:40;;;;;;;1.30;1.20;;;;;;;21.49;37.81;101293.19;4187012;28;20099;-62
2022/10/20 02:12:44;;;;;;;0.70;0.50;;;;;;;21.54;38.09;101300.72;4198571;28;20053;-62
2022/10/20 02:14:47;;;;;;;1.92;0.57;;;;;;;21.56;37.89;101306.81;4198049;28;20040;-62
2022/10/20 02:16:56;;;;;;;2.55;0.60;;;;;;;21.53;38.07;101305.44;4193509;28;20798;-61
2022/10/20 02:18:59;;;;;;;1.75;0.68;;;;;;;21.56;38.14;101304.88;4196636;28;20037;-62
2022/10/20 02:21:02;;;;;;;1.40;0.75;;;;;;;21.55;37.80;101310.72;4193660;28;20041;-63
2022/10/20 02:23:05;;;;;;;1.88;0.70;;;;;;;21.48;37.84;101305.41;4198763;28;20193;-61
2022/10/20 02:25:10;;;;;;;2.95;0.77;;;;;;;21.55;37.99;101319.91;4197478;28;20106;-61
2022/10/20 02:27:27;;;;;;;1.30;0.80;;;;;;;21.54;37.93;101317.41;4193734;28;20041;-62
2022/10/20 02:29:38;;;;;;;2.45;0.70;;;;;;;21.55;37.82;101321.88;4196536;28;20044;-62
2022/10/20 02:31:41;;;;;;;1.83;0.95;;;;;;;21.46;37.86;101309.59;4182282;28;20053;-63
2022/10/20 02:33:43;;;;;;;1.65;0.60;;;;;;;21.56;37.77;101329.09;4185740;28;20053;-63
2022/10/20 02:35:54;;;;;;;1.92;0.80;;;;;;;21.52;37.79;101319.63;4187484;28;20099;-63
2022/10/20 02:37:55;;;;;;;2.03;0.70;;;;;;;21.56;38.04;101326.31;4181770;28;20488;-63
2022/10/20 02:39:57;;;;;;;1.17;0.63;;;;;;;21.54;37.84;101334.13;4187571;28;20041;-61
2022/10/20 02:42:01;;;;;;;1.30;0.60;;;;;;;21.54;37.84;101334.13;4197503;28;20454;-63
2022/10/20 02:44:03;;;;;;;3.00;0.60;;;;;;;21.54;37.70;101336.91;4198440;28;20044;-62
2022/10/20 02:46:07;;;;;;;2.35;0.82;;;;;;;21.41;38.12;101317.94;4185353;28;20286;-62
2022/10/20 02:48:08;;;;;;;2.47;0.70;;;;;;;21.54;38.14;101345.28;4182007;28;20442;-61
2022/10/20 02:50:13;;;;;;;1.80;0.75;;;;;;;21.51;38.03;101335.50;4184126;28;20336;-61
2022/10/20 02:52:14;;;;;;;1.40;0.77;;;;;;;21.53;38.07;101349.13;4181991;28;20041;-61
2022/10/20 02:54:15;;;;;;;1.70;0.68;;;;;;;21.46;37.86;101337.44;4182162;28;20049;-61
2022/10/20 02:56:17;;;;;;;1.70;0.90;;;;;;;21.47;37.89;101341.91;4189148;28;20033;-62
2022/10/20 02:58:18;;;;;;;1.33;0.95;;;;;;;21.52;37.63;101359.44;4196319;28;20044;-62
2022/10/20 03:00:20;;;;;;;1.13;0.82;;;;;;;21.53;38.13;101351.94;4188321;28;20102;-62
2022/10/20 03:02:21;;;;;;;2.17;0.90;;;;;;;21.29;38.02;101323.72;4194763;28;20048;-62
2022/10/20 03:04:22;;;;;;;1.63;0.80;;;;;;;21.51;37.96;101349.44;4204673;28;20032;-62
2022/10/20 03:06:24;;;;;;;2.55;0.57;;;;;;;21.52;37.90;101359.44;4198816;28;20040;-62
2022/10/20 03:08:26;;;;;;;2.90;0.55;;;;;;;21.51;37.77;101355.00;4198237;28;20044;-62
2022/10/20 03:10:27;;;;;;;3.00;0.60;;;;;;;21.52;38.05;101364.19;4197032;28;20075;-62
2022/10/20 03:12:28;;;;;;;2.40;0.95;;;;;;;21.49;38.03;101359.19;4197699;28;20549;-62
2022/10/20 03:14:32;;;;;;;3.38;0.70;;;;;;;21.51;38.00;101362.50;4194697;28;20037;-62
2022/10/20 03:16:33;;;;;;;1.40;0.68;;;;;;;21.52;37.94;101373.38;4192362;28;20078;-62
2022/10/20 03:18:35;;;;;;;1.33;0.75;;;;;;;21.49;37.94;101368.38;4197038;28;20032;-62
2022/10/20 03:20:36;;;;;;;0.68;0.55;;;;;;;21.50;38.18;101372.81;4198264;28;20055;-63
2022/10/20 03:22:37;;;;;;;1.13;0.73;;;;;;;21.51;38.02;101368.09;4196869;28;20036;-62
2022/10/20 03:24:42;;;;;;;2.28;1.17;;;;;;;21.51;37.92;101373.66;4197540;28;20040;-63
2022/10/20 03:26:43;;;;;;;2.33;0.70;;;;;;;21.51;37.85;101374.50;4192475;28;20173;-62
2022/10/20 03:28:44;;;;;;;1.63;0.75;;;;;;;21.48;38.25;101377.81;4187479;28;20036;-62
2022/10/20 03:30:48;;;;;;;1.27;0.80;;;;;;;21.50;37.80;101388.69;4186872;28;20048;-62
2022/10/20 03:32:50;;;;;;;1.00;0.60;;;;;;;21.51;37.91;101384.78;4194802;28;20116;-62
2022/10/20 03:34:53;;;;;;;2.72;0.85;;;;;;;21.49;38.03;101379.50;4189480;28;20855;-62
2022/10/20 03:36:55;;;;;;;2.45;0.80;;;;;;;21.46;38.12;101391.19;4183657;28;20048;-62
2022/10/20 03:38:56;;;;;;;1.45;0.88;;;;;;;21.49;38.00;101389.81;4197652;28;20527;-62
2022/10/20 03:40:57;;;;;;;1.13;0.70;;;;;;;21.50;38.06;101388.69;4195051;28;20053;-62
2022/10/20 03:43:01;;;;;;;0.88;0.60;;;;;;;21.49;37.89;101393.44;4196135;28;20110;-62
2022/10/20 03:45:03;;;;;;;2.42;0.60;;;;;;;21.49;38.11;101392.59;4197048;28;20040;-62
2022/10/20 03:47:04;;;;;;;0.80;0.63;;;;;;;21.48;37.99;101390.91;4196618;28;20044;-62
2022/10/20 03:49:05;;;;;;;1.95;0.77;;;;;;;21.47;38.13;101394.81;4190542;28;20102;-62
2022/10/20 03:51:10;;;;;;;0.85;0.70;;;;;;;21.48;38.03;101397.31;4184246;28;20041;-62
2022/10/20 03:53:13;;;;;;;1.60;0.90;;;;;;;21.41;38.01;101391.16;4180933;28;20045;-62
2022/10/20 03:55:18;;;;;;;1.70;0.95;;;;;;;21.49;37.81;101398.16;4180874;28;20029;-62
2022/10/20 03:57:19;;;;;;;0.65;0.55;;;;;;;21.47;37.79;101394.81;4190353;28;20129;-62
2022/10/20 03:59:21;;;;;;;1.02;0.70;;;;;;;21.37;37.86;101378.06;4195490;28;20093;-62
2022/10/20 04:01:28;;;;;;;2.70;0.95;;;;;;;21.49;37.92;101404.56;4189708;28;20036;-62
2022/10/20 04:03:32;;;;;;;1.05;0.50;;;;;;;21.49;37.75;101410.13;4196974;28;20033;-62
2022/10/20 04:05:33;;;;;;;1.00;0.60;;;;;;;21.49;37.89;101409.31;4194765;28;20433;-62
2022/10/20 04:07:35;;;;;;;1.73;0.75;;;;;;;21.48;38.24;101400.09;4195641;28;20048;-62
2022/10/20 04:09:36;;;;;;;1.13;0.88;;;;;;;21.41;38.05;101401.47;4190666;28;20104;-62
2022/10/20 04:11:37;;;;;;;11.07;1.20;;;;;;;21.48;38.35;101408.44;4191837;28;20105;-64
2022/10/20 04:13:39;;;;;;;1.08;0.90;;;;;;;21.26;38.09;101378.00;4196017;28;20041;-64
2022/10/20 04:15:49;;;;;;;1.63;0.80;;;;;;;21.49;38.07;101412.09;4193519;28;20114;-65
2022/10/20 04:17:50;;;;;;;0.77;0.55;;;;;;;21.49;38.23;101406.53;4196972;28;20475;-65
2022/10/20 04:19:51;;;;;;;4.60;0.52;;;;;;;21.50;38.13;101405.41;4196716;28;20557;-65
2022/10/20 04:21:56;;;;;;;1.48;0.90;;;;;;;21.49;38.16;101406.53;4197225;28;20552;-65
2022/10/20 04:23:57;;;;;;;1.67;0.90;;;;;;;21.49;38.24;101406.53;4197316;28;20033;-65
2022/10/20 04:25:58;;;;;;;3.55;0.80;;;;;;;21.49;38.26;101412.09;4197492;28;20078;-65
2022/10/20 04:28:00;;;;;;;1.30;0.70;;;;;;;21.40;38.27;101399.81;4197090;28;20041;-65
2022/10/20 04:30:05;;;;;;;1.00;0.68;;;;;;;21.39;38.20;101403.69;4209242;28;20048;-65
2022/10/20 04:32:06;;;;;;;;;;;;;;;21.49;38.25;101414.88;4214813;28;20037;-64
2022/10/20 04:34:07;;;;;;;5.35;0.90;;;;;;;21.42;38.21;101394.78;4205921;28;19912;-65
2022/10/20 04:36:14;;;;;;;2.30;0.60;;;;;;;21.50;38.17;101416.53;4196805;28;20545;-65
2022/10/20 04:38:15;;;;;;;2.65;0.73;;;;;;;21.41;38.31;101396.75;4196905;28;20048;-65
2022/10/20 04:40:16;;;;;;;3.22;0.88;;;;;;;21.48;38.17;101413.19;4195748;28;20533;-65
2022/10/20 04:42:21;;;;;;;1.63;0.85;;;;;;;21.35;38.07;101402.53;4197234;28;20090;-64
2022/10/20 04:44:22;;;;;;;1.58;0.73;;;;;;;21.49;38.42;101423.22;4196990;28;20040;-65
2022/10/20 04:46:26;;;;;;;0.57;0.55;;;;;;;21.48;38.00;101427.09;4197217;28;20476;-65
2022/10/20 04:48:28;;;;;;;0.70;0.47;;;;;;;21.36;37.91;101402.28;4196786;28;20036;-65
2022/10/20 04:50:29;;;;;;;1.17;0.63;;;;;;;21.49;38.30;101431.56;4197246;28;20526;-65
2022/10/20 04:52:30;;;;;;;0.80;0.50;;;;;;;21.49;38.30;101428.78;4196865;28;20044;-65
2022/10/20 04:54:32;;;;;;;1.00;0.50;;;;;;;21.48;38.18;101427.09;4196903;28;20041;-65
2022/10/20 04:56:33;;;;;;;2.22;0.63;;;;;;;21.48;37.89;101430.72;4196752;28;20066;-64
2022/10/20 04:58:35;;;;;;;3.72;0.80;;;;;;;21.47;37.81;101422.66;4184833;28;20049;-64
2022/10/20 05:00:37;;;;;;;2.45;0.65;;;;;;;21.46;38.15;101427.38;4180635;28;20241;-64
2022/10/20 05:02:38;;;;;;;2.65;0.63;;;;;;;21.47;38.13;101425.44;4188294;28;20041;-63
2022/10/20 05:04:40;;;;;;;0.68;0.50;;;;;;;21.47;38.20;101428.22;4196462;28;20093;-64
2022/10/20 05:06:41;;;;;;;1.77;0.57;;;;;;;21.46;37.92;101435.72;4197107;28;20044;-64
2022/10/20 05:08:45;;;;;;;1.48;0.70;;;;;;;21.45;38.01;101430.44;4197091;28;20040;-64
2022/10/20 05:10:46;;;;;;;1.95;0.60;;;;;;;21.45;37.99;101436.84;4196959;28;20094;-64
2022/10/20 05:12:47;;;;;;;1.20;0.60;;;;;;;21.44;38.37;101439.88;4196864;28;20049;-64
2022/10/20 05:14:49;;;;;;;1.00;0.50;;;;;;;21.47;38.05;101444.91;4196935;28;20024;-65
2022/10/20 05:16:51;;;;;;;1.80;0.60;;;;;;;21.46;38.02;101438.53;4196418;28;20090;-64
2022/10/20 05:18:53;;;;;;;2.47;0.50;;;;;;;21.40;38.17;101433.22;4196622;28;20153;-64
2022/10/20 05:21:07;;;;;;;1.73;0.60;;;;;;;21.46;38.06;101446.03;4201476;28;20037;-64
2022/10/20 05:23:14;;;;;;;1.70;0.60;;;;;;;21.45;38.02;101439.63;4197001;28;20037;-64
2022/10/20 05:25:15;;;;;;;0.70;0.60;;;;;;;21.47;38.13;101444.91;4196419;28;20102;-64
2022/10/20 05:27:20;;;;;;;1.55;0.80;;;;;;;21.47;38.02;101433.78;4197034;28;20044;-64
2022/10/20 05:29:21;;;;;;;0.90;0.47;;;;;;;21.46;38.18;101443.25;4199618;28;20097;-64
2022/10/20 05:31:23;;;;;;;1.80;0.75;;;;;;;21.46;38.01;101448.81;4199681;28;20277;-64
2022/10/20 05:33:24;;;;;;;1.20;0.50;;;;;;;21.46;38.20;101448.81;4200097;28;20513;-64
2022/10/20 05:35:27;;;;;;;0.80;0.60;;;;;;;21.45;37.94;101445.19;4199106;28;20451;-64
2022/10/20 05:37:28;;;;;;;2.22;0.63;;;;;;;21.46;38.16;101451.59;4200352;28;20475;-64
2022/10/20 05:39:29;;;;;;;0.63;0.55;;;;;;;21.45;37.97;101452.72;4199650;28;20044;-64
2022/10/20 05:41:32;;;;;;;1.13;0.50;;;;;;;21.43;37.91;101452.13;4199712;28;20041;-64
2022/10/20 05:43:33;;;;;;;0.43;0.40;;;;;;;21.45;38.08;101458.28;4199645;28;20040;-64
2022/10/20 05:45:35;;;;;;;1.17;0.40;;;;;;;21.45;37.79;101458.28;4197860;28;20162;-64
2022/10/20 05:47:42;;;;;;;0.50;0.50;;;;;;;21.31;37.81;101442.09;4199897;28;20044;-64
2022/10/20 05:49:44;;;;;;;1.33;0.35;;;;;;;21.42;37.92;101448.53;4199720;28;20540;-65
2022/10/20 05:51:46;;;;;;;0.60;0.50;;;;;;;21.45;37.86;101461.91;4199547;28;20098;-65
2022/10/20 05:53:47;;;;;;;1.17;0.50;;;;;;;21.42;37.92;101448.53;4199239;28;20048;-64
2022/10/20 05:55:48;;;;;;;0.93;0.50;;;;;;;21.45;37.89;101459.13;4199152;28;20036;-64
2022/10/20 05:57:53;;;;;;;2.05;0.40;;;;;;;21.37;37.91;101444.88;4199465;28;20048;-64
2022/10/20 05:59:54;;;;;;;0.75;0.60;;;;;;;21.44;37.72;101456.59;4199381;28;20040;-64
2022/10/20 06:01:55;;;;;;;0.77;0.50;;;;;;;21.44;38.02;101456.59;4199261;28;20529;-65
2022/10/20 06:03:58;;;;;;;0.47;0.40;;;;;;;21.42;38.19;101459.66;4199333;28;20102;-65
2022/10/20 06:06:00;;;;;;;0.40;0.40;;;;;;;21.11;38.07;101404.91;4198712;28;20040;-64
2022/10/20 06:08:01;;;;;;;0.40;0.40;;;;;;;21.42;38.03;101453.25;4198808;28;20028;-64
2022/10/20 06:10:03;;;;;;;0.47;0.47;;;;;;;21.42;37.81;101458.81;4199383;28;20438;-64
2022/10/20 06:12:05;;;;;;;1.45;0.55;;;;;;;21.37;37.98;101450.47;4212358;28;20082;-64
2022/10/20 06:14:10;;;;;;;0.90;0.68;;;;;;;21.23;37.94;101423.09;4216135;28;20040;-64
2022/10/20 06:16:15;;;;;;;0.77;0.40;;;;;;;21.41;38.12;101460.78;4215450;28;20032;-65
2022/10/20 06:18:16;;;;;;;0.98;0.52;;;;;;;21.39;37.66;101457.41;4215698;28;20044;-65
2022/10/20 06:20:23;;;;;;;0.82;0.52;;;;;;;21.40;37.89;101467.47;4212988;28;20028;-64
2022/10/20 06:22:24;;;;;;;1.20;0.47;;;;;;;21.40;37.98;101466.63;4195726;28;20041;-64
2022/10/20 06:24:25;;;;;;;1.42;0.40;;;;;;;21.39;38.06;101459.34;4198815;28;20032;-64
2022/10/20 06:26:28;;;;;;;1.10;0.40;;;;;;;21.38;37.93;101469.66;4198871;28;20044;-64
2022/10/20 06:28:31;;;;;;;1.38;0.60;;;;;;;21.35;37.71;101452.66;4199409;28;20106;-64
2022/10/20 06:30:35;;;;;;;1.20;0.50;;;;;;;21.26;37.96;101447.59;4199058;28;20097;-65
2022/10/20 06:32:42;;;;;;;0.40;0.40;;;;;;;21.33;38.18;101461.28;4198851;28;20048;-65
2022/10/20 06:34:43;;;;;;;0.93;0.60;;;;;;;21.40;38.12;101469.41;4197032;28;20040;-65
2022/10/20 06:36:45;;;;;;;0.75;0.60;;;;;;;21.39;38.08;101464.94;4198801;28;20045;-64
2022/10/20 06:39:00;;;;;;;0.75;0.60;;;;;;;21.37;38.17;101461.59;4197480;28;20052;-65
2022/10/20 06:41:03;;;;;;;0.95;0.55;;;;;;;21.39;37.94;101459.34;4198929;28;20036;-64
2022/10/20 06:43:06;;;;;;;0.47;0.43;;;;;;;21.38;37.88;101449.34;4198373;28;20075;-64
2022/10/20 06:45:08;;;;;;;0.50;0.38;;;;;;;21.26;37.86;101428.13;4203089;28;20044;-64
2022/10/20 06:47:15;;;;;;;0.68;0.40;;;;;;;21.23;37.84;101425.88;4200068;28;20040;-64
2022/10/20 06:49:19;;;;;;;0.93;0.45;;;;;;;21.09;38.10;101405.22;4198811;28;20058;-64
2022/10/20 06:51:24;;;;;;;0.65;0.47;;;;;;;21.35;38.07;101444.31;4197123;28;20774;-64
2022/10/20 06:53:27;;;;;;;0.43;0.43;;;;;;;21.35;38.10;101430.38;4197465;28;20040;-65
2022/10/20 06:55:31;;;;;;;1.02;0.60;;;;;;;21.26;37.92;101422.53;4198230;28;20040;-64
2022/10/20 06:57:35;;;;;;;1.77;0.50;;;;;;;21.36;38.09;101427.34;4197321;28;20036;-64
2022/10/20 06:59:37;;;;;;;0.77;0.50;;;;;;;21.37;37.71;101436.53;4197729;28;20044;-64
2022/10/20 07:01:41;;;;;;;0.52;0.43;;;;;;;21.37;38.16;101442.09;4198539;28;20044;-64
2022/10/20 07:03:44;;;;;;;1.05;0.40;;;;;;;21.36;37.87;101441.25;4198446;28;20487;-64
2022/10/20 07:05:47;;;;;;;0.60;0.43;;;;;;;21.36;38.13;101454.34;4197662;28;20044;-64
2022/10/20 07:07:54;;;;;;;0.40;0.40;;;;;;;21.26;37.89;101438.41;4198071;28;20549;-65
2022/10/20 07:09:55;;;;;;;0.50;0.50;;;;;;;21.36;37.99;101451.56;4198120;28;20079;-65
2022/10/20 07:11:57;;;;;;;0.95;0.47;;;;;;;21.34;38.02;101445.41;4198329;28;20102;-65
2022/10/20 07:13:59;;;;;;;0.57;0.30;;;;;;;21.34;37.82;101445.41;4198408;28;20541;-65
2022/10/20 07:16:01;;;;;;;0.50;0.40;;;;;;;21.21;37.76;101419.75;4197715;28;20037;-65
2022/10/20 07:18:05;;;;;;;1.15;0.40;;;;;;;21.34;37.88;101439.84;4197566;28;20109;-65
2022/10/20 07:20:07;;;;;;;0.60;0.37;;;;;;;21.22;37.72;101418.63;4196961;28;20044;-65
2022/10/20 07:22:08;;;;;;;1.17;0.52;;;;;;;21.33;38.12;101441.81;4196806;28;20097;-65
2022/10/20 07:24:10;;;;;;;1.13;0.68;;;;;;;21.33;38.08;101435.41;4198354;28;20044;-66
2022/10/20 07:26:27;;;;;;;0.75;0.63;;;;;;;21.32;38.14;101442.91;4197737;28;20499;-64
2022/10/20 07:28:29;;;;;;;0.75;0.57;;;;;;;21.34;37.67;101445.41;4198186;28;20040;-64
2022/10/20 07:30:30;;;;;;;0.50;0.40;;;;;;;21.34;37.99;101451.00;4198126;28;20446;-64
2022/10/20 07:32:32;;;;;;;1.25;0.40;;;;;;;21.33;37.96;101457.66;4198178;28;20033;-64
2022/10/20 07:34:33;;;;;;;0.32;0.30;;;;;;;21.33;37.80;101455.72;4196937;28;20098;-63
2022/10/20 07:36:35;;;;;;;0.52;0.52;;;;;;;21.31;37.76;101453.22;4196730;28;20048;-64
2022/10/20 07:38:36;;;;;;;1.67;0.52;;;;;;;21.30;37.92;101451.53;4196299;28;20052;-64
2022/10/20 07:40:37;;;;;;;0.32;0.32;;;;;;;21.30;38.15;101451.53;4196800;28;20044;-64
2022/10/20 07:42:39;;;;;;;1.08;0.50;;;;;;;21.28;38.08;101450.94;4196515;28;20040;-64
2022/10/20 07:44:40;;;;;;;0.73;0.45;;;;;;;21.13;38.00;101428.59;4196417;28;20110;-64
2022/10/20 07:46:41;;;;;;;0.43;0.40;;;;;;;21.30;37.92;101457.09;4197546;28;20036;-64
2022/10/20 07:48:45;;;;;;;0.75;0.60;;;;;;;21.30;38.06;101459.88;4197083;28;20036;-65
2022/10/20 07:50:47;;;;;;;0.50;0.40;;;;;;;21.31;38.16;101457.94;4196193;28;20541;-64
2022/10/20 07:52:55;;;;;;;0.35;0.35;;;;;;;21.30;37.82;101457.09;4195828;28;20044;-64
2022/10/20 07:54:59;;;;;;;1.05;0.60;;;;;;;21.27;38.01;101452.06;4184766;28;20036;-64
2022/10/20 07:57:01;;;;;;;0.57;0.50;;;;;;;21.25;37.76;101457.03;4197973;28;20020;-64
2022/10/20 07:59:03;;;;;;;0.47;0.38;;;;;;;21.29;37.87;101460.13;4197634;28;20044;-64
2022/10/20 08:01:07;;;;;;;0.68;0.50;;;;;;;21.05;38.01;101420.75;4196790;28;20040;-64
2022/10/20 08:03:09;;;;;;;0.45;0.45;;;;;;;21.28;38.11;101450.94;4197496;28;20044;-64
2022/10/20 08:05:10;;;;;;;0.88;0.57;;;;;;;21.28;38.17;101464.84;4196096;28;20079;-64
2022/10/20 08:07:12;;;;;;;0.60;0.50;;;;;;;21.29;38.19;101462.91;4196946;28;20098;-64
2022/10/20 08:09:13;;;;;;;0.63;0.40;;;;;;;21.28;37.92;101453.72;4194342;28;20372;-64
2022/10/20 08:11:17;;;;;;;0.38;0.38;;;;;;;21.28;37.99;101458.44;4196665;28;20040;-64
2022/10/20 08:13:21;;;;;;;0.50;0.50;;;;;;;21.06;37.89;101419.66;4197367;28;20090;-64
2022/10/20 08:15:25;;;;;;;0.52;0.50;;;;;;;21.29;37.84;101460.13;4187744;28;20040;-64
2022/10/20 08:17:28;;;;;;;0.88;0.65;;;;;;;21.28;37.65;101464.84;4197283;28;20098;-64
2022/10/20 08:19:29;;;;;;;0.55;0.55;;;;;;;21.27;37.90;101462.34;4180038;28;20049;-64
2022/10/20 08:21:31;;;;;;;2.15;0.50;;;;;;;21.28;38.15;101464.84;4197591;28;20474;-64
2022/10/20 08:23:32;;;;;;;0.60;0.40;;;;;;;21.27;38.06;101468.75;4197126;28;20045;-64
2022/10/20 08:25:33;;;;;;;0.77;0.40;;;;;;;21.21;37.82;101463.41;4191974;28;20553;-64
2022/10/20 08:27:38;;;;;;;1.08;0.60;;;;;;;21.27;38.01;101463.19;4196796;28;20036;-64
2022/10/20 08:29:45;;;;;;;0.60;0.60;;;;;;;21.27;38.09;101467.91;4196573;28;20049;-64
2022/10/20 08:31:46;;;;;;;0.68;0.50;;;;;;;20.99;38.14;101410.72;4181378;28;20468;-64
2022/10/20 08:33:47;;;;;;;1.08;0.50;;;;;;;21.17;38.06;101434.47;4197343;28;20044;-64
2022/10/20 08:35:51;;;;;;;0.63;0.40;;;;;;;21.06;37.73;101416.88;4196160;28;20041;-64
2022/10/20 08:37:55;;;;;;;0.90;0.60;;;;;;;21.28;37.99;101455.66;4196412;28;20040;-64
2022/10/20 08:39:57;;;;;;;0.85;0.52;;;;;;;21.27;38.11;101463.19;4196834;28;20472;-64
2022/10/20 08:41:59;;;;;;;0.43;0.40;;;;;;;21.23;38.10;101453.69;4196705;28;20422;-64
2022/10/20 08:44:03;;;;;;;0.75;0.40;;;;;;;21.26;37.74;101466.25;4193805;28;20041;-64
2022/10/20 08:46:05;;;;;;;0.60;0.60;;;;;;;21.23;38.21;101467.63;4196132;28;20185;-64
2022/10/20 08:48:15;;;;;;;1.45;0.60;;;;;;;21.25;37.80;101470.94;4196856;28;20479;-64
2022/10/20 08:50:18;;;;;;;0.88;0.60;;;;;;;21.26;38.00;101472.66;4194749;28;20037;-64
2022/10/20 08:52:21;;;;;;;0.50;0.50;;;;;;;21.25;37.70;101476.50;4197364;28;20028;-64
2022/10/20 08:54:23;;;;;;;0.40;0.40;;;;;;;21.25;37.82;101475.69;4197206;28;20102;-64
2022/10/20 08:56:30;;;;;;;0.52;0.40;;;;;;;21.25;38.22;101473.72;4196588;28;20418;-64
2022/10/20 08:58:35;;;;;;;1.02;0.63;;;;;;;21.25;37.99;101478.47;4196812;28;20052;-65
2022/10/20 09:00:40;;;;;;;1.05;0.57;;;;;;;21.26;37.82;101471.81;4197401;28;20487;-64
2022/10/20 09:02:42;;;;;;;1.23;0.80;;;;;;;21.25;37.99;101478.47;4197916;28;20037;-64
2022/10/20 09:04:53;;;;;;;0.70;0.50;;;;;;;21.25;38.15;101486.81;4200169;28;20045;-64
2022/10/20 09:07:02;;;;;;;1.13;0.60;;;;;;;21.25;38.13;101476.50;4200073;28;20036;-64
2022/10/20 09:09:03;;;;;;;1.50;0.80;;;;;;;21.24;37.67;101499.91;4200057;28;20037;-64
2022/10/20 09:11:07;;;;;;;0.57;0.57;;;;;;;21.24;38.03;101497.13;4200386;28;20028;-64
2022/10/20 09:13:22;;;;;;;0.60;0.45;;;;;;;21.21;38.03;101497.69;4199744;28;20533;-64
2022/10/20 09:15:25;;;;;;;1.10;0.70;;;;;;;21.24;38.06;101490.72;4199203;28;20134;-64
2022/10/20 09:17:27;;;;;;;0.70;0.57;;;;;;;21.25;37.70;101493.22;4199720;28;20056;-64
2022/10/20 09:19:29;;;;;;;0.60;0.57;;;;;;;21.25;38.08;101490.44;4200318;28;20045;-64
2022/10/20 09:21:32;;;;;;;0.82;0.70;;;;;;;21.24;37.69;101491.53;4200198;28;20086;-64
2022/10/20 09:23:37;;;;;;;0.80;0.70;;;;;;;21.02;37.93;101460.25;4200207;28;20081;-64
2022/10/20 09:25:41;;;;;;;0.73;0.60;;;;;;;21.24;38.18;101493.50;4199620;28;20078;-64
2022/10/20 09:27:44;;;;;;;0.80;0.60;;;;;;;21.23;38.11;101492.66;4200034;28;20037;-64
2022/10/20 09:29:45;;;;;;;0.82;0.75;;;;;;;21.01;37.93;101458.56;4191393;28;20102;-64
2022/10/20 09:31:55;;;;;;;0.88;0.52;;;;;;;21.18;38.04;101487.06;4199394;28;20041;-64
2022/10/20 09:33:57;;;;;;;1.20;0.70;;;;;;;21.14;37.71;101485.09;4183362;28;20094;-65
2022/10/20 09:36:13;;;;;;;0.98;0.70;;;;;;;21.20;38.20;101500.72;4196401;28;20025;-64
2022/10/20 09:38:18;;;;;;;;;;;;;;;21.21;37.78;101505.16;4200478;28;20135;-64
2022/10/20 09:40:21;;;;;;;1.20;0.80;;;;;;;21.28;37.72;101503.81;4199655;28;19969;-64
2022/10/20 09:42:28;;;;;;;0.88;0.50;;;;;;;21.27;37.60;101513.28;4199878;28;20037;-64